Sunday, October 21, 2018, 9:53 PM EDT
Back to Local

KIZG, Fryeburg Eastern Slopes Rgnl

Location: Fryeburg, ME, United States Lat: 43.983
Local Time: 9:53 PM EDT ( 1:53 GMT) Lon: -70.95
Time Zone: US/Eastern Elev: 452 ft

Show me the last for .
Show Decoded

2018-10-21 20:54 METAR KIZG 220054Z AUTO 29007G16KT 10SM CLR 02/M08 A2995 RMK AO2 SLP145
                 T00171078 =
2018-10-21 19:54 METAR KIZG 212354Z AUTO 29008KT 10SM FEW055 02/M08 A2993 RMK AO2 SLP140
                 T00171083 10050 20011 51024 =
2018-10-21 18:54 METAR KIZG 212254Z AUTO VRB06KT 10SM SCT060 01/M08 A2991 RMK AO2 SLP135
                 T00111083 =
2018-10-21 17:54 METAR KIZG 212154Z AUTO 28008G16KT 10SM CLR 02/M08 A2988 RMK AO2 SLP123
                 T00221083 =
2018-10-21 16:54 METAR KIZG 212054Z AUTO 28009G17KT 10SM OVC047 03/M07 A2986 RMK AO2 SLP116
                 T00281072 53020 =
2018-10-21 15:54 METAR KIZG 211954Z AUTO 29011G21KT 10SM BKN049 04/M07 A2983 RMK AO2 SLP105
                 T00391067 =
2018-10-21 14:54 METAR KIZG 211854Z AUTO 30012G21KT 10SM BKN049 04/M06 A2981 RMK AO2 SLP100
                 T00391061 =
2018-10-21 13:54 METAR KIZG 211754Z AUTO 29009G18KT 10SM BKN044 05/M06 A2980 RMK AO2 SLP095
                 T00501056 10061 20017 53008 =
2018-10-21 12:54 METAR KIZG 211654Z AUTO 29009G21KT 240V320 10SM SCT047 06/M06 A2979 RMK AO2
                 SLP091 T00611056 =
2018-10-21 11:54 METAR KIZG 211554Z AUTO 30010G16KT 260V340 10SM OVC046 06/M05 A2978 RMK AO2
                 SLP089 T00561050 =
2018-10-21 10:54 METAR KIZG 211454Z AUTO 29008G18KT 10SM OVC041 05/M06 A2977 RMK AO2 SLP086
                 T00501061 51027 =
2018-10-21 09:54 METAR KIZG 211354Z AUTO 00000KT 10SM OVC040 05/M02 A2975 RMK AO2 SLP080
                 T00501022 =
2018-10-21 08:54 METAR KIZG 211254Z AUTO 32003KT 10SM FEW046 04/M01 A2973 RMK AO2 SLP071
                 T00441006 =
2018-10-21 07:54 METAR KIZG 211154Z AUTO 00000KT 10SM CLR 02/00 A2969 RMK AO2 SLP057 I6000
                 T00170000 10017 21017 53029 =
2018-10-21 06:54 METAR KIZG 211054Z AUTO 00000KT 10SM CLR 01/M01 A2965 RMK AO2 SLP044 T00061006 =
2018-10-21 05:54 METAR KIZG 210954Z AUTO 00000KT 10SM FEW120 00/M01 A2962 RMK AO2 SLP035
                 T00001006 =
2018-10-21 04:54 METAR KIZG 210854Z AUTO 00000KT 10SM CLR M01/M02 A2960 RMK AO2 SLP027 I3000
                 T10061017 51006 =
2018-10-21 03:54 METAR KIZG 210754Z AUTO 00000KT 10SM CLR M01/M02 A2959 RMK AO2 SLP025 I1000
                 T10111017 =
2018-10-21 02:54 METAR KIZG 210654Z AUTO 00000KT 10SM BKN120 M01/M02 A2960 RMK AO2 SLP024
                 T10111017 =
2018-10-21 01:54 METAR KIZG 210554Z AUTO 00000KT 10SM CLR M01/M02 A2959 RMK AO2 SLP021 T10061017
                 10094 21011 51006 =
2018-10-21 00:54 METAR KIZG 210454Z AUTO 00000KT 10SM CLR 00/M01 A2958 RMK AO2 SLP020 T00001006
                 401720000 =
2018-10-20 23:54 METAR KIZG 210354Z AUTO 04005KT 10SM CLR 03/01 A2958 RMK AO2 SLP018 T00280006 =
2018-10-20 22:54 METAR KIZG 210254Z AUTO 00000KT 10SM CLR 01/01 A2957 RMK AO2 SLP015 T00110006
                 53012 =
2018-10-20 21:54 METAR KIZG 210154Z AUTO 00000KT 10SM CLR 02/00 A2955 RMK AO2 SLP008 T00220000 =

Support USWX by starting your Amazon purchase here.